createdAt,value
2022-07-28T00:00:15.990Z,73.25
2022-07-28T00:02:43.333Z,73.69
2022-07-28T00:05:11.515Z,73.88
2022-07-28T00:07:38.706Z,73.39
2022-07-28T00:10:07.066Z,73.83
2022-07-28T00:12:34.721Z,74.17
2022-07-28T00:15:02.635Z,74.66
2022-07-28T00:17:29.985Z,74.57
2022-07-28T00:19:57.154Z,74.59
2022-07-28T00:22:25.560Z,74.62
2022-07-28T00:24:52.855Z,74.57
2022-07-28T00:27:20.129Z,75.19
2022-07-28T00:29:51.085Z,74.55
2022-07-28T00:32:21.793Z,75.31
2022-07-28T00:34:52.833Z,75.86
2022-07-28T00:37:21.417Z,76.29
2022-07-28T00:39:48.616Z,76.32
2022-07-28T00:42:21.204Z,75.66
2022-07-28T00:44:49.085Z,75.77
2022-07-28T00:47:16.625Z,76.41
2022-07-28T00:49:45.778Z,76.39
2022-07-28T00:52:13.453Z,76.98
2022-07-28T00:54:41.136Z,76.54
2022-07-28T00:57:08.353Z,76.80
2022-07-28T00:59:35.545Z,76.76
2022-07-28T01:02:03.642Z,76.72
2022-07-28T01:04:31.614Z,76.54
2022-07-28T01:07:39.854Z,76.74
2022-07-28T01:10:52.083Z,76.48
2022-07-28T01:13:34.224Z,76.69
2022-07-28T01:16:06.807Z,76.81
2022-07-28T01:19:09.624Z,76.91
2022-07-28T01:21:41.866Z,77.00
2022-07-28T01:24:46.426Z,77.59
2022-07-28T01:28:18.085Z,76.77
2022-07-28T01:30:52.791Z,77.60
2022-07-28T01:33:39.460Z,77.69
2022-07-28T01:36:33.307Z,77.92
2022-07-28T01:39:02.518Z,77.52
2022-07-28T01:41:33.887Z,77.68
2022-07-28T01:44:08.519Z,77.75
2022-07-28T01:46:38.537Z,77.32
2022-07-28T01:49:10.234Z,78.37
2022-07-28T01:51:39.355Z,77.46
2022-07-28T01:54:09.581Z,78.31
2022-07-28T01:56:40.711Z,77.38
2022-07-28T01:59:12.185Z,77.85
2022-07-28T02:01:45.748Z,78.20
2022-07-28T02:04:21.279Z,77.82
2022-07-28T02:06:51.304Z,78.10
2022-07-28T02:09:22.803Z,77.06
2022-07-28T02:11:54.846Z,77.04
2022-07-28T02:14:27.461Z,77.23
2022-07-28T02:17:04.709Z,77.42
2022-07-28T02:19:34.499Z,77.91
2022-07-28T02:22:04.943Z,76.93
2022-07-28T02:24:35.337Z,77.17
2022-07-28T02:27:36.482Z,77.59
2022-07-28T02:30:30.831Z,77.00
2022-07-28T02:33:12.604Z,78.08
2022-07-28T02:36:05.125Z,77.99
2022-07-28T02:38:46.701Z,78.43
2022-07-28T02:41:28.795Z,77.79
2022-07-28T02:44:12.922Z,77.93
2022-07-28T02:46:48.300Z,78.33
2022-07-28T02:49:25.401Z,78.03
2022-07-28T02:51:55.226Z,78.29
2022-07-28T02:54:27.564Z,79.21
2022-07-28T02:56:58.118Z,78.99
2022-07-28T02:59:28.616Z,78.20
2022-07-28T03:01:58.961Z,78.64
2022-07-28T03:04:47.061Z,79.24
2022-07-28T03:07:15.057Z,78.77
2022-07-28T03:09:46.887Z,78.94
2022-07-28T03:12:15.496Z,79.72
2022-07-28T03:14:43.195Z,78.82
2022-07-28T03:17:10.783Z,79.33
2022-07-28T03:19:39.118Z,79.41
2022-07-28T03:22:10.258Z,79.43
2022-07-28T03:24:53.115Z,80.11
2022-07-28T03:27:43.010Z,80.28
2022-07-28T03:30:19.507Z,79.67
2022-07-28T03:32:57.037Z,80.08
2022-07-28T03:35:25.927Z,81.52
2022-07-28T03:38:18.749Z,80.34
2022-07-28T03:40:49.087Z,80.67
2022-07-28T03:43:22.759Z,80.71
2022-07-28T03:45:50.700Z,81.08
2022-07-28T03:48:17.958Z,81.18
2022-07-28T03:50:45.241Z,81.49
2022-07-28T03:53:27.116Z,82.65
2022-07-28T03:55:54.939Z,82.33
2022-07-28T03:58:28.532Z,83.07
2022-07-28T04:00:58.508Z,82.89
2022-07-28T04:03:42.387Z,82.11
2022-07-28T04:06:15.618Z,83.36
2022-07-28T04:08:45.140Z,83.08
2022-07-28T04:11:12.689Z,82.50
2022-07-28T04:13:40.001Z,84.13
2022-07-28T04:16:07.699Z,84.50
2022-07-28T04:18:35.506Z,83.24
2022-07-28T04:21:03.502Z,83.55
2022-07-28T04:23:30.972Z,84.32
2022-07-28T04:25:58.287Z,85.43
2022-07-28T04:28:25.727Z,85.39
2022-07-28T04:30:53.046Z,84.99
2022-07-28T04:33:20.455Z,84.97
2022-07-28T04:35:47.810Z,85.62
2022-07-28T04:38:17.161Z,84.72
2022-07-28T04:40:44.344Z,86.11
2022-07-28T04:43:11.727Z,85.04
2022-07-28T04:45:39.221Z,85.71
2022-07-28T04:48:14.258Z,85.37
2022-07-28T04:50:45.892Z,85.59
2022-07-28T04:53:13.582Z,86.20
2022-07-28T04:55:40.974Z,85.35
2022-07-28T04:58:09.475Z,85.58
2022-07-28T05:00:36.754Z,84.46
2022-07-28T05:03:05.175Z,85.40
2022-07-28T05:05:32.563Z,84.32
2022-07-28T05:07:59.773Z,84.61
2022-07-28T05:10:27.611Z,84.92
2022-07-28T05:12:54.787Z,84.71
2022-07-28T05:15:22.017Z,85.88
2022-07-28T05:17:50.207Z,86.10
2022-07-28T05:20:17.448Z,85.05
2022-07-28T05:22:55.410Z,84.89
2022-07-28T05:25:25.472Z,85.91
2022-07-28T05:27:54.616Z,84.74
2022-07-28T05:30:22.729Z,85.72
2022-07-28T05:32:50.656Z,84.91
2022-07-28T05:35:17.899Z,85.57
2022-07-28T05:37:45.083Z,84.35
2022-07-28T05:40:15.431Z,84.76
2022-07-28T05:42:47.691Z,84.68
2022-07-28T05:45:16.769Z,84.15
2022-07-28T05:47:49.263Z,83.90
2022-07-28T05:50:20.073Z,83.45
2022-07-28T05:52:49.015Z,82.87
2022-07-28T05:55:17.620Z,82.79
2022-07-28T05:57:45.978Z,83.02
2022-07-28T06:00:21.304Z,83.43
2022-07-28T06:02:50.815Z,81.57
2022-07-28T06:05:22.565Z,81.28
2022-07-28T06:07:51.558Z,81.36
2022-07-28T06:10:25.208Z,80.53
2022-07-28T06:12:56.165Z,80.00
2022-07-28T06:15:28.151Z,79.55
2022-07-28T06:17:55.967Z,77.92
2022-07-28T06:20:25.576Z,77.37
2022-07-28T06:22:55.345Z,76.54
2022-07-28T06:25:29.306Z,76.55
2022-07-28T06:28:00.340Z,75.89
2022-07-28T06:30:28.431Z,75.62
2022-07-28T06:32:57.475Z,75.91
2022-07-28T06:35:26.160Z,74.83
2022-07-28T06:37:55.040Z,74.24
2022-07-28T06:40:23.459Z,74.06
2022-07-28T06:42:51.820Z,73.17
2022-07-28T06:45:21.530Z,73.96
2022-07-28T06:47:52.684Z,73.88
2022-07-28T06:50:26.001Z,73.84
2022-07-28T06:52:59.006Z,73.23
2022-07-28T06:55:34.568Z,73.04
2022-07-28T06:58:05.029Z,73.04
2022-07-28T07:00:33.118Z,72.36
2022-07-28T07:03:01.146Z,72.41
2022-07-28T07:05:32.056Z,73.19
2022-07-28T07:08:00.345Z,72.89
2022-07-28T07:10:27.802Z,73.83
2022-07-28T07:12:55.009Z,73.73
2022-07-28T07:15:22.297Z,73.04
2022-07-28T07:17:49.567Z,72.99
2022-07-28T07:20:18.272Z,72.06
2022-07-28T07:22:47.586Z,71.79
2022-07-28T07:25:18.848Z,70.83
2022-07-28T07:27:47.209Z,70.65
2022-07-28T07:30:16.678Z,69.12
2022-07-28T07:32:44.561Z,68.55
2022-07-28T07:35:12.525Z,67.67
2022-07-28T07:37:40.893Z,67.67
2022-07-28T07:40:09.574Z,67.47
2022-07-28T07:42:37.458Z,66.51
2022-07-28T07:45:06.708Z,66.81
2022-07-28T07:47:33.997Z,66.81
2022-07-28T07:50:04.171Z,66.49
2022-07-28T07:52:32.211Z,66.27
2022-07-28T07:54:59.454Z,65.43
2022-07-28T07:57:26.846Z,65.78
2022-07-28T07:59:55.555Z,64.36
2022-07-28T08:02:22.888Z,63.02
2022-07-28T08:04:50.318Z,61.56
2022-07-28T08:07:17.609Z,60.93
2022-07-28T08:09:49.651Z,61.33
2022-07-28T08:12:16.892Z,61.27
2022-07-28T08:14:52.042Z,60.59
2022-07-28T08:17:23.648Z,59.68
2022-07-28T08:19:53.579Z,58.91
2022-07-28T08:22:20.857Z,58.51
2022-07-28T08:24:48.123Z,59.64
2022-07-28T08:27:15.397Z,59.50
2022-07-28T08:29:42.614Z,58.63
2022-07-28T08:32:09.939Z,56.66
2022-07-28T08:34:38.786Z,54.94
2022-07-28T08:37:06.614Z,55.84
2022-07-28T08:39:36.075Z,54.59
2022-07-28T08:42:12.099Z,55.35
2022-07-28T08:45:04.238Z,54.01
2022-07-28T08:47:45.956Z,50.60
2022-07-28T08:50:24.573Z,48.49
2022-07-28T08:52:55.766Z,48.78
2022-07-28T08:55:32.059Z,48.76
2022-07-28T08:58:00.817Z,47.70
2022-07-28T09:00:29.029Z,47.16
2022-07-28T09:02:57.446Z,45.81
2022-07-28T09:05:25.523Z,44.91
2022-07-28T09:07:55.795Z,44.82
2022-07-28T09:10:23.778Z,44.58
2022-07-28T09:12:51.675Z,42.64
2022-07-28T09:15:18.961Z,41.57
2022-07-28T09:17:46.186Z,41.02
2022-07-28T09:20:14.099Z,40.78
2022-07-28T09:23:04.400Z,40.65
2022-07-28T09:25:31.756Z,41.53
2022-07-28T09:28:16.621Z,39.55
2022-07-28T09:30:54.410Z,39.67
2022-07-28T09:33:41.931Z,39.32
2022-07-28T09:36:16.466Z,39.01
2022-07-28T09:38:44.925Z,39.52
2022-07-28T09:41:13.081Z,38.90
2022-07-28T09:43:44.509Z,37.94
2022-07-28T09:46:19.481Z,38.05
2022-07-28T09:48:51.266Z,37.84
2022-07-28T09:51:30.662Z,38.56
2022-07-28T09:54:16.204Z,37.94
2022-07-28T09:56:47.222Z,37.47
2022-07-28T09:59:15.309Z,37.33
2022-07-28T10:02:00.826Z,36.44
2022-07-28T10:04:37.449Z,36.82
2022-07-28T10:07:11.179Z,37.20
2022-07-28T10:09:40.658Z,36.12
2022-07-28T10:12:37.123Z,36.11
2022-07-28T10:15:36.761Z,35.84
2022-07-28T10:18:06.518Z,36.13
2022-07-28T10:20:36.804Z,35.89
2022-07-28T10:23:11.613Z,35.12
2022-07-28T10:25:43.329Z,35.06
2022-07-28T10:28:15.736Z,34.96
2022-07-28T10:30:44.131Z,35.47
2022-07-28T10:33:15.862Z,34.36
2022-07-28T10:35:55.032Z,34.77
2022-07-28T10:38:29.692Z,34.59
2022-07-28T10:41:03.567Z,33.38
2022-07-28T10:43:33.077Z,33.49
2022-07-28T10:46:06.738Z,34.02
2022-07-28T10:48:38.730Z,33.19
2022-07-28T10:51:06.981Z,33.09
2022-07-28T10:54:05.839Z,33.65
2022-07-28T10:56:58.828Z,33.40
2022-07-28T10:59:55.822Z,33.76
2022-07-28T11:02:57.577Z,32.53
2022-07-28T11:05:38.660Z,32.79
2022-07-28T11:08:29.172Z,32.86
2022-07-28T11:11:00.901Z,32.51
2022-07-28T11:13:40.989Z,31.73
2022-07-28T11:16:15.502Z,32.20
2022-07-28T11:19:36.952Z,32.05
2022-07-28T11:22:28.061Z,32.13
2022-07-28T11:24:58.331Z,31.68
2022-07-28T11:27:41.091Z,31.75
2022-07-28T11:30:42.455Z,30.66
2022-07-28T11:33:10.093Z,31.03
2022-07-28T11:35:40.267Z,31.43
2022-07-28T11:38:14.953Z,30.48
2022-07-28T11:40:53.475Z,31.39
2022-07-28T11:43:28.640Z,30.51
2022-07-28T11:46:10.300Z,29.01
2022-07-28T11:48:42.321Z,30.60
2022-07-28T11:51:14.387Z,30.14
2022-07-28T11:53:50.711Z,30.03
2022-07-28T11:56:32.769Z,29.14
2022-07-28T11:59:07.857Z,30.22
2022-07-28T12:01:36.960Z,30.37
2022-07-28T12:04:13.393Z,30.04
2022-07-28T12:06:43.188Z,30.88
2022-07-28T12:09:13.453Z,32.00
2022-07-28T12:11:42.385Z,32.34
2022-07-28T12:14:17.530Z,32.65
2022-07-28T12:16:51.083Z,32.83
2022-07-28T12:19:20.987Z,33.37
2022-07-28T12:21:55.427Z,33.75
2022-07-28T12:24:31.259Z,33.65
2022-07-28T12:27:03.414Z,34.27
2022-07-28T12:29:35.682Z,34.57
2022-07-28T12:32:10.889Z,34.53
2022-07-28T12:34:44.414Z,35.23
2022-07-28T12:37:14.310Z,35.29
2022-07-28T12:39:43.468Z,35.44
2022-07-28T12:42:13.301Z,35.39
2022-07-28T12:44:43.719Z,35.88
2022-07-28T12:47:24.609Z,35.82
2022-07-28T12:50:19.939Z,36.21
2022-07-28T12:53:12.750Z,35.94
2022-07-28T12:55:45.516Z,35.56
2022-07-28T12:58:27.263Z,34.16
2022-07-28T13:00:56.375Z,35.11
2022-07-28T13:03:28.720Z,34.73
2022-07-28T13:06:03.489Z,34.59
2022-07-28T13:08:47.985Z,34.13
2022-07-28T13:14:04.622Z,34.92
2022-07-28T13:16:32.088Z,34.44
2022-07-28T13:19:05.002Z,34.17
2022-07-28T13:21:58.358Z,33.92
2022-07-28T13:24:29.448Z,34.06
2022-07-28T13:26:59.361Z,34.50
2022-07-28T13:29:26.734Z,34.00
2022-07-28T13:31:56.940Z,34.28
2022-07-28T13:34:24.230Z,33.78
2022-07-28T13:36:52.518Z,34.11
2022-07-28T13:39:19.990Z,34.34
2022-07-28T13:41:57.276Z,33.68
2022-07-28T13:44:28.404Z,33.55
2022-07-28T13:46:58.279Z,33.37
2022-07-28T13:49:28.839Z,31.89
2022-07-28T13:51:56.345Z,32.03
2022-07-28T13:54:25.182Z,33.07
2022-07-28T13:56:53.594Z,32.74
2022-07-28T13:59:21.282Z,32.88
2022-07-28T14:01:49.687Z,33.25
2022-07-28T14:04:19.639Z,32.87
2022-07-28T14:06:49.255Z,32.18
2022-07-28T14:09:18.092Z,31.15
2022-07-28T14:11:53.521Z,32.17
2022-07-28T14:14:24.955Z,31.59
2022-07-28T14:16:54.998Z,31.02
2022-07-28T14:19:38.192Z,31.79
2022-07-28T14:22:13.377Z,31.96
2022-07-28T14:24:42.820Z,31.74
2022-07-28T14:27:11.212Z,32.51
2022-07-28T14:29:39.964Z,31.86
2022-07-28T14:32:07.808Z,31.68
2022-07-28T14:34:35.731Z,30.99
2022-07-28T14:37:06.657Z,30.91
2022-07-28T14:39:38.292Z,30.27
2022-07-28T14:42:07.075Z,30.62
2022-07-28T14:44:34.550Z,30.62
2022-07-28T14:47:02.574Z,30.84
2022-07-28T14:49:30.002Z,31.70
2022-07-28T14:51:59.299Z,30.90
2022-07-28T14:54:27.816Z,31.79
2022-07-28T14:56:55.269Z,32.32
2022-07-28T14:59:22.567Z,32.40
2022-07-28T15:01:50.388Z,32.91
2022-07-28T15:04:18.938Z,33.21
2022-07-28T15:06:47.468Z,33.73
2022-07-28T15:09:15.255Z,33.41
2022-07-28T15:11:44.692Z,33.03
2022-07-28T15:14:12.128Z,33.12
2022-07-28T15:16:42.937Z,33.61
2022-07-28T15:19:10.511Z,33.01
2022-07-28T15:21:40.644Z,33.79
2022-07-28T15:24:09.664Z,34.00
2022-07-28T15:26:37.535Z,33.67
2022-07-28T15:29:05.215Z,34.08
2022-07-28T15:31:33.293Z,33.39
2022-07-28T15:34:00.819Z,33.20
2022-07-28T15:36:29.342Z,32.41
2022-07-28T15:38:56.859Z,33.59
2022-07-28T15:41:24.281Z,33.26
2022-07-28T15:43:51.638Z,33.76
2022-07-28T15:46:18.941Z,34.54
2022-07-28T15:48:47.180Z,33.65
2022-07-28T15:51:14.466Z,33.96
2022-07-28T15:53:41.878Z,34.48
2022-07-28T15:56:09.085Z,34.44
2022-07-28T15:58:36.594Z,34.73
2022-07-28T16:01:04.373Z,34.83
2022-07-28T16:03:31.771Z,34.91
2022-07-28T16:05:59.263Z,34.92
2022-07-28T16:08:27.462Z,35.06
2022-07-28T16:10:55.095Z,35.63
2022-07-28T16:13:36.514Z,35.57
2022-07-28T16:16:12.294Z,35.29
2022-07-28T16:18:43.289Z,35.64
2022-07-28T16:21:11.752Z,36.13
2022-07-28T16:23:39.199Z,36.02
2022-07-28T16:26:08.755Z,36.07
2022-07-28T16:28:36.670Z,36.22
2022-07-28T16:31:04.291Z,36.52
2022-07-28T16:33:33.200Z,36.26
2022-07-28T16:36:02.610Z,36.34
2022-07-28T16:38:30.550Z,36.45
2022-07-28T16:40:57.795Z,36.70
2022-07-28T16:43:25.071Z,36.43
2022-07-28T16:45:52.367Z,36.68
2022-07-28T16:48:20.721Z,36.41
2022-07-28T16:50:47.914Z,36.91
2022-07-28T16:53:16.362Z,36.66
2022-07-28T16:55:44.505Z,37.15
2022-07-28T16:58:11.844Z,37.22
2022-07-28T17:00:39.153Z,37.02
2022-07-28T17:03:06.374Z,37.17
2022-07-28T17:05:33.906Z,37.50
2022-07-28T17:08:01.137Z,37.05
2022-07-28T17:10:28.491Z,37.67
2022-07-28T17:12:57.562Z,37.40
2022-07-28T17:15:24.933Z,37.10
2022-07-28T17:17:53.320Z,37.59
2022-07-28T17:20:21.168Z,37.76
2022-07-28T17:22:48.956Z,37.92
2022-07-28T17:28:05.818Z,37.39
2022-07-28T17:30:34.151Z,38.30
2022-07-28T17:33:08.383Z,38.51
2022-07-28T17:35:38.128Z,38.78
2022-07-28T17:38:09.171Z,38.19
2022-07-28T17:40:41.541Z,38.91
2022-07-28T17:43:11.800Z,38.47
2022-07-28T17:45:39.179Z,39.20
2022-07-28T17:48:06.670Z,38.97
2022-07-28T17:50:33.975Z,38.57
2022-07-28T17:53:01.748Z,38.23
2022-07-28T17:55:57.651Z,38.32
2022-07-28T17:58:32.304Z,39.40
2022-07-28T18:01:13.729Z,39.19
2022-07-28T18:03:59.521Z,39.53
2022-07-28T18:06:36.789Z,39.47
2022-07-28T18:09:10.539Z,39.62
2022-07-28T18:11:57.610Z,39.51
2022-07-28T18:14:29.130Z,40.03
2022-07-28T18:16:58.302Z,39.94
2022-07-28T18:19:27.552Z,40.34
2022-07-28T18:21:56.317Z,39.88
2022-07-28T18:24:23.769Z,40.90
2022-07-28T18:26:54.580Z,40.71
2022-07-28T18:29:22.383Z,40.06
2022-07-28T18:31:52.015Z,40.87
2022-07-28T18:34:23.183Z,41.02
2022-07-28T18:36:53.649Z,41.07
2022-07-28T18:39:21.278Z,41.30
2022-07-28T18:41:48.436Z,41.08
2022-07-28T18:44:19.481Z,42.02
2022-07-28T18:46:48.289Z,42.66
2022-07-28T18:49:16.067Z,42.65
2022-07-28T18:51:44.956Z,42.05
2022-07-28T18:54:21.441Z,42.61
2022-07-28T18:56:52.315Z,43.17
2022-07-28T18:59:19.491Z,42.55
2022-07-28T19:01:46.750Z,43.42
2022-07-28T19:04:14.358Z,43.14
2022-07-28T19:06:42.077Z,43.20
2022-07-28T19:09:09.359Z,43.77
2022-07-28T19:11:36.660Z,43.62
2022-07-28T19:14:03.874Z,43.72
2022-07-28T19:16:31.024Z,44.16
2022-07-28T19:18:58.382Z,43.95
2022-07-28T19:21:25.568Z,44.95
2022-07-28T19:23:53.082Z,44.89
2022-07-28T19:26:21.851Z,45.06
2022-07-28T19:28:50.041Z,45.01
2022-07-28T19:31:17.364Z,44.69
2022-07-28T19:33:44.644Z,45.14
2022-07-28T19:36:15.769Z,45.06
2022-07-28T19:38:44.177Z,45.48
2022-07-28T19:41:13.082Z,45.77
2022-07-28T19:43:40.647Z,45.52
2022-07-28T19:46:08.414Z,45.71
2022-07-28T19:48:35.954Z,46.04
2022-07-28T19:51:04.183Z,46.47
2022-07-28T19:53:34.495Z,46.50
2022-07-28T19:56:03.769Z,46.70
2022-07-28T19:58:34.404Z,46.81
2022-07-28T20:01:05.030Z,47.23
2022-07-28T20:04:01.223Z,47.37
2022-07-28T20:06:24.640Z,47.81
2022-07-28T20:08:54.254Z,47.97
2022-07-28T20:11:21.729Z,48.07
2022-07-28T20:13:49.507Z,48.59
2022-07-28T20:16:17.557Z,48.46
2022-07-28T20:18:44.894Z,48.94
2022-07-28T20:21:12.193Z,49.10
2022-07-28T20:23:40.912Z,49.57
2022-07-28T20:26:09.985Z,49.62
2022-07-28T20:28:40.401Z,50.38
2022-07-28T20:31:08.158Z,50.42
2022-07-28T20:33:36.152Z,50.50
2022-07-28T20:36:03.787Z,51.22
2022-07-28T20:38:31.091Z,51.39
2022-07-28T20:40:58.366Z,51.38
2022-07-28T20:43:37.272Z,51.74
2022-07-28T20:46:05.664Z,51.97
2022-07-28T20:48:33.140Z,52.09
2022-07-28T20:51:00.385Z,52.28
2022-07-28T20:53:27.739Z,52.86
2022-07-28T20:55:54.947Z,53.34
2022-07-28T20:58:22.158Z,53.26
2022-07-28T21:00:51.251Z,53.33
2022-07-28T21:03:19.062Z,54.07
2022-07-28T21:05:46.341Z,53.81
2022-07-28T21:08:16.996Z,53.62
2022-07-28T21:10:45.598Z,53.98
2022-07-28T21:13:13.044Z,54.02
2022-07-28T21:15:40.730Z,54.19
2022-07-28T21:18:09.484Z,54.41
2022-07-28T21:20:36.925Z,54.57
2022-07-28T21:23:04.886Z,54.59
2022-07-28T21:25:32.628Z,54.59
2022-07-28T21:28:18.344Z,54.46
2022-07-28T21:30:46.206Z,54.47
2022-07-28T21:33:13.865Z,55.07
2022-07-28T21:35:50.691Z,54.95
2022-07-28T21:38:17.994Z,55.32
2022-07-28T21:40:45.181Z,55.17
2022-07-28T21:43:12.546Z,55.30
2022-07-28T21:45:39.890Z,55.78
2022-07-28T21:48:07.371Z,55.44
2022-07-28T21:50:37.551Z,56.36
2022-07-28T21:53:05.079Z,56.15
2022-07-28T21:55:32.332Z,56.37
2022-07-28T21:57:59.648Z,56.12
2022-07-28T22:00:26.952Z,56.87
2022-07-28T22:02:54.570Z,56.63
2022-07-28T22:05:22.018Z,56.74
2022-07-28T22:07:49.430Z,56.85
2022-07-28T22:10:18.671Z,57.31
2022-07-28T22:12:46.576Z,57.74
2022-07-28T22:15:14.790Z,57.19
2022-07-28T22:17:42.935Z,56.96
2022-07-28T22:20:11.870Z,56.89
2022-07-28T22:22:39.112Z,57.10
2022-07-28T22:25:07.706Z,56.81
2022-07-28T22:27:35.014Z,57.32
2022-07-28T22:30:03.079Z,57.06
2022-07-28T22:32:31.129Z,57.44
2022-07-28T22:34:58.794Z,57.46
2022-07-28T22:37:26.299Z,57.44
2022-07-28T22:39:53.565Z,57.73
2022-07-28T22:42:20.755Z,57.71
2022-07-28T22:44:48.583Z,57.39
2022-07-28T22:47:16.007Z,57.68
2022-07-28T22:49:43.232Z,57.90
2022-07-28T22:52:10.497Z,57.90
2022-07-28T22:54:40.153Z,57.96
2022-07-28T22:57:07.705Z,57.61
2022-07-28T22:59:37.205Z,58.27
2022-07-28T23:02:07.268Z,57.61
2022-07-28T23:04:34.504Z,58.37
2022-07-28T23:07:01.919Z,58.47
2022-07-28T23:09:29.368Z,58.57
2022-07-28T23:11:56.675Z,58.48
2022-07-28T23:14:24.141Z,58.85
2022-07-28T23:16:51.539Z,58.36
2022-07-28T23:19:18.776Z,58.67
2022-07-28T23:21:46.057Z,59.08
2022-07-28T23:24:13.788Z,58.82
2022-07-28T23:26:41.283Z,59.40
2022-07-28T23:29:08.808Z,59.40
2022-07-28T23:31:36.352Z,60.03
2022-07-28T23:34:03.697Z,59.65
2022-07-28T23:36:31.178Z,59.47
2022-07-28T23:38:59.580Z,60.16
2022-07-28T23:41:28.206Z,60.68
2022-07-28T23:43:55.571Z,60.80
2022-07-28T23:46:23.183Z,61.43
2022-07-28T23:48:51.128Z,61.09
2022-07-28T23:51:18.572Z,60.99
2022-07-28T23:53:46.084Z,61.65
2022-07-28T23:56:15.444Z,61.25
2022-07-28T23:58:42.906Z,61.72
